Time;durP1;ratioP1;P1;durP2;ratioP2;P2;SDS_P1;SDS_P2;PMS_P1;PMS_P2;Temp;Humidity;BMP_temperature;BMP_pressure;BME280_temperature;BME280_humidity;BME280_pressure;Samples;Min_cycle;Max_cycle;Signal;HPM_P1;HPM_P2
2022/02/26 00:02:19;;;;;;;5.10;1.20;;;7.50;90.30;;;;;;5020642;28;20239;-67
2022/02/26 00:04:47;;;;;;;1.33;0.53;;;7.50;90.30;;;;;;5010224;28;20266;-67
2022/02/26 00:07:14;;;;;;;2.30;0.77;;;7.50;90.20;;;;;;5020589;28;20203;-67
2022/02/26 00:09:41;;;;;;;4.17;0.73;;;7.50;90.20;;;;;;5024681;28;20214;-67
2022/02/26 00:12:09;;;;;;;1.90;0.83;;;7.50;90.20;;;;;;5005867;28;20679;-67
2022/02/26 00:14:37;;;;;;;2.20;0.80;;;7.50;90.30;;;;;;5016090;28;20231;-67
2022/02/26 00:17:05;;;;;;;3.57;0.73;;;7.50;90.30;;;;;;5017258;28;20207;-67
2022/02/26 00:19:33;;;;;;;4.37;1.53;;;7.50;90.30;;;;;;5021532;28;20632;-67
2022/02/26 00:22:00;;;;;;;3.40;0.80;;;7.50;90.30;;;;;;5024606;28;20215;-67
2022/02/26 00:24:27;;;;;;;2.87;0.90;;;7.50;90.30;;;;;;5019767;28;20667;-67
2022/02/26 00:26:55;;;;;;;1.67;0.63;;;7.50;90.20;;;;;;5002076;28;20633;-67
2022/02/26 00:29:22;;;;;;;2.53;0.70;;;7.50;90.00;;;;;;5023241;28;20250;-67
2022/02/26 00:31:49;;;;;;;2.47;1.00;;;7.50;89.70;;;;;;5009834;28;20282;-67
2022/02/26 00:34:16;;;;;;;1.43;0.67;;;7.50;89.10;;;;;;5023479;28;20227;-67
2022/02/26 00:36:44;;;;;;;2.03;0.80;;;7.50;88.70;;;;;;5030527;28;20219;-67
2022/02/26 00:39:11;;;;;;;2.97;0.90;;;7.50;88.80;;;;;;5017318;28;20521;-67
2022/02/26 00:41:38;;;;;;;2.40;0.70;;;7.50;88.30;;;;;;5021393;28;20209;-67
2022/02/26 00:44:05;;;;;;;3.00;0.90;;;7.50;88.70;;;;;;5026336;28;20545;-67
2022/02/26 00:46:33;;;;;;;1.40;0.50;;;7.50;88.90;;;;;;5019500;28;20223;-67
2022/02/26 00:51:48;;;;;;;2.47;0.60;;;7.50;88.20;;;;;;5019371;28;20525;-67
2022/02/26 00:54:15;;;;;;;1.70;0.50;;;7.50;87.30;;;;;;5025378;28;20295;-67
2022/02/26 00:56:43;;;;;;;1.57;0.50;;;7.50;87.10;;;;;;5019727;28;20534;-67
2022/02/26 00:59:11;;;;;;;1.50;0.50;;;7.50;86.30;;;;;;5019012;28;20667;-67
2022/02/26 01:01:38;;;;;;;2.73;0.60;;;7.60;85.90;;;;;;5022714;28;20547;-67
2022/02/26 01:04:06;;;;;;;1.03;0.47;;;7.60;85.30;;;;;;5025247;28;20679;-67
2022/02/26 01:06:35;;;;;;;1.00;0.70;;;7.60;84.80;;;;;;5024895;28;20618;-67
2022/02/26 01:09:05;;;;;;;1.03;0.87;;;7.60;84.70;;;;;;5026891;28;20225;-67
2022/02/26 01:11:33;;;;;;;3.20;0.60;;;7.50;83.70;;;;;;5014545;28;20221;-67
2022/02/26 01:14:00;;;;;;;2.43;0.70;;;7.60;82.10;;;;;;5017874;28;20660;-67
2022/02/26 01:16:33;;;;;;;0.73;0.50;;;7.50;81.40;;;;;;5024029;28;20207;-67
2022/02/26 01:19:00;;;;;;;1.17;0.70;;;7.50;82.50;;;;;;5020698;28;20204;-67
2022/02/26 01:21:27;;;;;;;3.13;0.50;;;7.50;83.60;;;;;;5016614;28;20273;-67
2022/02/26 01:23:58;;;;;;;4.60;0.60;;;7.50;84.20;;;;;;5017808;28;20248;-67
2022/02/26 01:26:25;;;;;;;1.40;0.70;;;7.50;84.50;;;;;;5023638;28;20221;-67
2022/02/26 01:28:52;;;;;;;1.90;0.70;;;7.50;85.10;;;;;;5022939;28;20199;-67
2022/02/26 01:31:20;;;;;;;1.63;0.70;;;7.50;86.00;;;;;;5020473;28;20222;-67
2022/02/26 01:33:47;;;;;;;0.90;0.63;;;7.50;85.60;;;;;;5021543;28;20223;-67
2022/02/26 01:36:15;;;;;;;2.60;0.63;;;7.40;85.80;;;;;;5019914;28;20200;-67
2022/02/26 01:38:42;;;;;;;1.20;0.60;;;7.50;86.30;;;;;;5023064;28;20207;-67
2022/02/26 01:41:10;;;;;;;2.00;0.60;;;7.40;87.20;;;;;;5026372;28;20517;-67
2022/02/26 01:43:37;;;;;;;1.00;0.60;;;7.40;86.70;;;;;;5016125;28;20199;-67
2022/02/26 01:46:06;;;;;;;1.43;0.70;;;7.40;87.10;;;;;;5017906;28;20208;-67
2022/02/26 01:48:37;;;;;;;3.53;1.00;;;7.40;87.20;;;;;;5022298;28;20217;-67
2022/02/26 01:51:07;;;;;;;3.90;0.80;;;7.40;87.30;;;;;;5021897;28;20206;-67
2022/02/26 01:53:35;;;;;;;2.37;0.80;;;7.40;87.50;;;;;;5015797;28;20221;-67
2022/02/26 01:56:04;;;;;;;2.93;0.70;;;7.40;87.60;;;;;;5015876;28;20210;-67
2022/02/26 01:58:32;;;;;;;1.10;0.63;;;7.40;87.60;;;;;;5023802;28;20234;-67
2022/02/26 02:01:00;;;;;;;2.47;0.77;;;7.30;87.40;;;;;;5022438;28;20218;-67
2022/02/26 02:03:27;;;;;;;3.10;0.83;;;7.30;87.60;;;;;;5019960;28;20210;-67
2022/02/26 02:05:55;;;;;;;2.40;0.63;;;7.30;87.80;;;;;;5022888;28;20705;-67
2022/02/26 02:08:23;;;;;;;5.03;1.77;;;7.30;88.00;;;;;;5018724;28;20200;-67
2022/02/26 02:10:51;;;;;;;2.83;0.60;;;7.30;87.60;;;;;;5022706;28;20200;-67
2022/02/26 02:13:20;;;;;;;2.77;0.70;;;7.30;87.30;;;;;;5024369;28;20198;-67
2022/02/26 02:15:47;;;;;;;2.50;0.90;;;7.30;87.10;;;;;;5016865;28;20215;-67
2022/02/26 02:18:16;;;;;;;3.80;0.80;;;7.20;86.60;;;;;;5017642;28;20213;-67
2022/02/26 02:20:44;;;;;;;3.63;0.77;;;7.20;86.90;;;;;;4986870;28;20218;-66
2022/02/26 02:23:14;;;;;;;2.50;0.60;;;7.20;87.00;;;;;;5023073;28;20294;-66
2022/02/26 02:25:41;;;;;;;2.63;0.70;;;7.10;86.70;;;;;;5018906;28;20203;-66
2022/02/26 02:28:09;;;;;;;5.40;0.90;;;7.10;86.80;;;;;;5015297;28;20210;-66
2022/02/26 02:30:38;;;;;;;2.10;0.70;;;7.10;87.40;;;;;;5023935;28;20203;-66
2022/02/26 02:33:06;;;;;;;3.00;0.83;;;7.10;88.00;;;;;;5025257;28;20217;-66
2022/02/26 02:35:40;;;;;;;2.60;0.60;;;7.10;87.80;;;;;;5025876;28;20223;-66
2022/02/26 02:38:13;;;;;;;1.07;0.50;;;7.10;86.90;;;;;;5024155;28;20277;-66
2022/02/26 02:40:43;;;;;;;1.87;0.80;;;7.10;86.90;;;;;;5014511;28;20564;-67
2022/02/26 02:43:11;;;;;;;3.33;0.60;;;7.00;87.10;;;;;;5013744;28;20204;-67
2022/02/26 02:45:39;;;;;;;2.17;0.70;;;7.00;87.40;;;;;;5021685;28;20218;-67
2022/02/26 02:48:07;;;;;;;3.23;0.70;;;6.90;87.50;;;;;;5018651;28;20207;-67
2022/02/26 02:50:34;;;;;;;2.63;1.17;;;6.90;87.70;;;;;;5018115;28;20211;-67
2022/02/26 02:53:01;;;;;;;1.30;0.70;;;6.80;87.90;;;;;;5023059;28;20229;-66
2022/02/26 02:55:28;;;;;;;2.90;0.80;;;6.80;88.20;;;;;;5025999;28;20284;-66
2022/02/26 02:57:56;;;;;;;3.20;0.80;;;6.80;88.40;;;;;;5024497;28;20309;-66
2022/02/26 03:00:25;;;;;;;2.50;0.67;;;6.80;88.60;;;;;;5018866;28;20668;-66
2022/02/26 03:02:52;;;;;;;2.40;1.00;;;6.80;88.80;;;;;;5027737;28;20267;-66
2022/02/26 03:05:21;;;;;;;2.77;0.87;;;6.80;89.00;;;;;;5025137;28;20205;-66
2022/02/26 03:07:49;;;;;;;2.07;1.00;;;6.80;89.00;;;;;;5005376;28;20242;-66
2022/02/26 03:10:16;;;;;;;1.80;0.90;;;6.80;89.30;;;;;;5025648;28;20225;-66
2022/02/26 03:12:49;;;;;;;3.37;0.87;;;6.80;89.50;;;;;;5018243;28;20234;-66
2022/02/26 03:15:17;;;;;;;5.83;1.23;;;6.70;89.60;;;;;;5020843;28;20328;-66
2022/02/26 03:17:44;;;;;;;2.30;0.80;;;6.70;89.90;;;;;;5022492;28;20218;-66
2022/02/26 03:20:12;;;;;;;4.83;0.70;;;6.60;90.00;;;;;;5022002;28;20206;-66
2022/02/26 03:22:39;;;;;;;1.23;0.80;;;6.60;90.00;;;;;;5014825;28;20594;-67
2022/02/26 03:25:07;;;;;;;2.53;1.17;;;6.60;90.10;;;;;;5021294;28;20206;-67
2022/02/26 03:27:34;;;;;;;3.37;0.60;;;6.60;90.20;;;;;;5024918;28;20215;-66
2022/02/26 03:30:02;;;;;;;1.30;0.67;;;6.50;90.30;;;;;;5026685;28;20222;-66
2022/02/26 03:32:29;;;;;;;1.87;1.03;;;6.50;90.40;;;;;;5020464;28;20207;-66
2022/02/26 03:34:56;;;;;;;0.93;0.60;;;6.40;90.50;;;;;;5021956;28;20230;-66
2022/02/26 03:37:26;;;;;;;3.97;0.87;;;6.30;90.60;;;;;;5022533;28;20210;-67
2022/02/26 03:39:55;;;;;;;2.10;0.73;;;6.30;90.80;;;;;;5026235;28;20207;-67
2022/02/26 03:42:22;;;;;;;1.80;0.73;;;6.20;90.90;;;;;;5026212;28;20526;-66
2022/02/26 03:44:50;;;;;;;2.23;0.60;;;6.20;91.10;;;;;;5019385;28;20217;-66
2022/02/26 03:47:18;;;;;;;3.17;1.10;;;6.10;91.20;;;;;;5019702;28;20217;-66
2022/02/26 03:49:46;;;;;;;2.83;1.03;;;6.10;91.20;;;;;;5009461;28;20213;-66
2022/02/26 03:52:14;;;;;;;2.13;0.97;;;6.10;91.40;;;;;;5007280;28;20639;-66
2022/02/26 03:54:41;;;;;;;4.93;1.00;;;6.10;91.40;;;;;;5019810;28;20230;-66
2022/02/26 03:57:09;;;;;;;4.03;0.90;;;6.10;91.50;;;;;;5018121;28;20213;-66
2022/02/26 03:59:36;;;;;;;4.80;0.80;;;6.00;91.50;;;;;;5029190;28;20688;-66
2022/02/26 04:02:03;;;;;;;2.07;1.13;;;6.00;91.50;;;;;;5026285;28;20202;-66
2022/02/26 04:04:35;;;;;;;4.37;1.00;;;6.00;91.50;;;;;;5027316;28;20206;-66
2022/02/26 04:07:03;;;;;;;4.80;1.00;;;6.00;91.60;;;;;;5022158;28;20660;-66
2022/02/26 04:09:31;;;;;;;0.70;0.70;;;6.00;91.60;;;;;;5020132;28;20224;-66
2022/02/26 04:11:58;;;;;;;1.73;0.97;;;6.00;91.50;;;;;;5024424;28;20858;-66
2022/02/26 04:14:25;;;;;;;2.17;1.00;;;6.00;91.40;;;;;;5024844;28;20636;-66
2022/02/26 04:16:53;;;;;;;1.13;0.83;;;6.00;91.40;;;;;;5019953;28;20201;-66
2022/02/26 04:19:20;;;;;;;5.23;0.97;;;6.00;91.30;;;;;;5019700;28;20221;-67
2022/02/26 04:21:47;;;;;;;0.80;0.80;;;6.00;91.30;;;;;;5001918;28;20286;-67
2022/02/26 04:24:15;;;;;;;2.30;1.20;;;6.00;91.60;;;;;;5024561;28;20674;-66
2022/02/26 04:26:42;;;;;;;1.90;0.80;;;6.00;91.30;;;;;;5020296;28;20217;-66
2022/02/26 04:29:09;;;;;;;1.00;1.00;;;6.00;91.30;;;;;;5014849;28;20202;-66
2022/02/26 04:31:36;;;;;;;2.97;1.03;;;5.90;91.30;;;;;;5027336;28;20206;-66
2022/02/26 04:34:03;;;;;;;2.40;1.07;;;5.90;91.40;;;;;;5026437;28;20542;-66
2022/02/26 04:36:31;;;;;;;1.60;1.10;;;5.80;91.50;;;;;;5028133;28;20201;-66
2022/02/26 04:38:58;;;;;;;2.40;1.10;;;5.80;91.50;;;;;;5025776;28;20524;-66
2022/02/26 04:41:25;;;;;;;2.60;1.43;;;5.80;91.50;;;;;;5017725;28;20517;-66
2022/02/26 04:43:53;;;;;;;2.97;1.33;;;5.80;91.60;;;;;;5005895;28;20207;-66
2022/02/26 04:46:21;;;;;;;1.43;1.00;;;5.70;91.70;;;;;;5017723;28;20211;-66
2022/02/26 04:48:48;;;;;;;4.50;1.30;;;5.70;91.70;;;;;;5020251;28;20237;-66
2022/02/26 04:51:16;;;;;;;1.73;1.30;;;5.70;91.70;;;;;;4998769;28;20623;-68
2022/02/26 04:53:43;;;;;;;3.13;1.40;;;5.70;92.10;;;;;;5020977;28;20657;-66
2022/02/26 04:56:10;;;;;;;5.23;1.47;;;5.60;91.90;;;;;;5024213;28;20730;-66
2022/02/26 04:58:38;;;;;;;3.47;1.40;;;5.60;92.00;;;;;;5022218;28;20265;-66
2022/02/26 05:01:05;;;;;;;2.53;1.50;;;5.60;92.00;;;;;;5017870;28;20217;-66
2022/02/26 05:03:33;;;;;;;1.63;1.20;;;5.50;92.00;;;;;;5023193;28;20201;-66
2022/02/26 05:06:00;;;;;;;3.43;1.50;;;5.50;92.00;;;;;;5002887;28;20232;-66
2022/02/26 05:08:28;;;;;;;2.97;1.53;;;5.50;92.10;;;;;;5025912;28;20213;-66
2022/02/26 05:10:55;;;;;;;6.20;2.13;;;5.40;92.30;;;;;;5024004;28;20230;-66
2022/02/26 05:13:23;;;;;;;2.80;1.80;;;5.40;92.40;;;;;;5016786;28;20216;-66
2022/02/26 05:15:50;;;;;;;3.70;1.87;;;5.40;92.50;;;;;;5019575;28;20554;-66
2022/02/26 05:18:18;;;;;;;1.70;1.60;;;5.40;92.60;;;;;;5022723;28;20216;-66
2022/02/26 05:20:45;;;;;;;4.63;1.80;;;5.30;92.60;;;;;;5022199;28;20207;-66
2022/02/26 05:23:12;;;;;;;2.23;1.80;;;5.30;92.70;;;;;;5017065;28;20631;-66
2022/02/26 05:25:39;;;;;;;7.07;3.30;;;5.30;92.70;;;;;;5017228;28;20206;-66
2022/02/26 05:28:06;;;;;;;3.80;1.97;;;5.20;92.80;;;;;;5026702;28;20222;-66
2022/02/26 05:30:33;;;;;;;2.33;2.10;;;5.20;92.90;;;;;;5023258;28;20217;-66
2022/02/26 05:33:00;;;;;;;5.33;2.20;;;5.20;92.90;;;;;;5019648;28;20209;-66
2022/02/26 05:35:29;;;;;;;2.40;2.20;;;5.20;92.90;;;;;;5021883;28;20324;-66
2022/02/26 05:37:57;;;;;;;3.10;2.23;;;5.20;93.00;;;;;;5019105;28;20611;-66
2022/02/26 05:40:24;;;;;;;4.27;2.43;;;5.10;92.90;;;;;;5022806;28;20216;-66
2022/02/26 05:42:51;;;;;;;2.83;2.10;;;5.10;93.00;;;;;;5024121;28;20224;-66
2022/02/26 05:45:18;;;;;;;5.70;2.13;;;5.10;93.00;;;;;;5017004;28;20263;-66
2022/02/26 05:47:45;;;;;;;5.90;2.57;;;5.00;93.10;;;;;;5018858;28;20284;-66
2022/02/26 05:50:13;;;;;;;3.23;2.93;;;5.00;93.10;;;;;;5022172;28;20204;-66
2022/02/26 05:52:41;;;;;;;2.90;2.37;;;5.00;93.10;;;;;;5022826;28;20211;-66
2022/02/26 05:55:09;;;;;;;3.60;1.97;;;5.00;93.10;;;;;;5018966;28;20232;-66
2022/02/26 05:57:37;;;;;;;2.30;2.10;;;5.00;93.20;;;;;;5015230;28;20298;-66
2022/02/26 06:00:05;;;;;;;4.10;2.27;;;5.00;93.20;;;;;;5030195;28;20568;-66
2022/02/26 06:02:33;;;;;;;3.17;2.23;;;5.00;93.20;;;;;;5022094;28;20200;-66
2022/02/26 06:05:01;;;;;;;4.07;1.73;;;5.00;93.10;;;;;;5015321;28;20560;-66
2022/02/26 06:07:30;;;;;;;4.17;2.23;;;5.00;93.10;;;;;;5016422;28;20213;-66
2022/02/26 06:09:57;;;;;;;2.27;2.07;;;5.00;93.00;;;;;;5014445;28;20197;-66
2022/02/26 06:12:25;;;;;;;2.43;2.00;;;5.00;92.90;;;;;;5019537;28;20248;-66
2022/02/26 06:14:52;;;;;;;2.73;2.10;;;5.00;92.80;;;;;;5023157;28;20225;-66
2022/02/26 06:17:20;;;;;;;7.10;2.13;;;5.00;92.80;;;;;;5014419;28;20237;-66
2022/02/26 06:19:47;;;;;;;4.87;2.37;;;5.00;92.80;;;;;;4997239;28;20217;-66
2022/02/26 06:22:15;;;;;;;2.90;2.53;;;5.00;92.70;;;;;;5019921;28;20526;-67
2022/02/26 06:24:42;;;;;;;2.53;1.97;;;5.00;92.60;;;;;;5028730;28;20286;-66
2022/02/26 06:27:09;;;;;;;3.60;2.30;;;5.00;92.50;;;;;;5024611;28;20214;-66
2022/02/26 06:29:37;;;;;;;1.90;1.80;;;5.10;92.50;;;;;;5020078;28;20325;-66
2022/02/26 06:32:05;;;;;;;4.60;1.87;;;5.00;92.40;;;;;;5028615;28;20732;-66
2022/02/26 06:34:33;;;;;;;3.80;2.30;;;5.10;92.40;;;;;;5006683;28;20502;-66
2022/02/26 06:37:01;;;;;;;2.40;2.20;;;5.00;92.30;;;;;;5029641;28;20209;-66
2022/02/26 06:39:28;;;;;;;3.00;2.37;;;5.10;92.30;;;;;;5025699;28;20209;-66
2022/02/26 06:41:55;;;;;;;2.37;1.97;;;5.00;92.10;;;;;;5018675;28;20204;-66
2022/02/26 06:44:22;;;;;;;2.87;2.27;;;5.00;92.00;;;;;;5005846;28;20213;-66
2022/02/26 06:46:50;;;;;;;4.30;2.27;;;5.00;92.00;;;;;;5023643;28;20264;-66
2022/02/26 06:49:17;;;;;;;3.97;2.80;;;5.00;92.20;;;;;;5021089;28;20315;-66
2022/02/26 06:51:45;;;;;;;5.57;2.40;;;5.00;91.80;;;;;;5020894;28;20210;-66
2022/02/26 06:54:12;;;;;;;3.87;2.40;;;5.00;91.80;;;;;;5003436;28;20632;-66
2022/02/26 06:56:39;;;;;;;3.90;2.40;;;5.00;91.80;;;;;;5027969;28;20253;-66
2022/02/26 06:59:06;;;;;;;3.27;2.40;;;5.10;91.90;;;;;;5027012;28;20245;-66
2022/02/26 07:01:34;;;;;;;2.60;2.40;;;5.10;91.90;;;;;;5021395;28;20205;-66
2022/02/26 07:04:02;;;;;;;3.90;2.50;;;5.10;92.00;;;;;;5022531;28;20220;-66
2022/02/26 07:06:29;;;;;;;3.43;2.97;;;5.20;92.10;;;;;;5021796;28;20669;-66
2022/02/26 07:08:56;;;;;;;4.67;3.13;;;5.30;92.10;;;;;;5009589;28;20553;-66
2022/02/26 07:11:23;;;;;;;4.17;2.90;;;5.40;92.00;;;;;;5023395;28;20223;-66
2022/02/26 07:13:50;;;;;;;4.73;2.83;;;5.60;91.80;;;;;;5014302;28;20220;-67
2022/02/26 07:16:17;;;;;;;2.97;2.20;;;5.80;91.50;;;;;;5021025;28;20670;-67
2022/02/26 07:18:44;;;;;;;6.60;2.40;;;6.10;91.20;;;;;;5024324;28;20204;-67
2022/02/26 07:21:11;;;;;;;3.47;2.60;;;6.50;90.60;;;;;;4999800;28;20214;-67
2022/02/26 07:23:39;;;;;;;2.77;2.57;;;6.80;89.60;;;;;;5002199;28;20211;-67
2022/02/26 07:26:06;;;;;;;3.47;2.73;;;7.10;88.40;;;;;;5018317;28;20640;-67
2022/02/26 07:28:33;;;;;;;6.30;2.70;;;7.30;87.50;;;;;;5029094;28;20228;-66
2022/02/26 07:31:00;;;;;;;3.23;2.40;;;7.50;87.60;;;;;;5027394;28;20657;-66
2022/02/26 07:33:28;;;;;;;6.07;2.73;;;7.70;86.30;;;;;;5028349;28;20242;-66
2022/02/26 07:35:55;;;;;;;3.30;2.33;;;7.80;85.80;;;;;;5024897;28;20226;-67
2022/02/26 07:38:22;;;;;;;2.60;2.40;;;8.00;85.60;;;;;;5020246;28;20210;-66
2022/02/26 07:40:49;;;;;;;3.27;2.60;;;8.10;85.30;;;;;;5024356;28;20258;-66
2022/02/26 07:43:16;;;;;;;4.30;2.90;;;8.20;85.10;;;;;;5025036;28;20209;-66
2022/02/26 07:45:46;;;;;;;5.73;3.37;;;8.30;85.10;;;;;;5019519;28;20249;-66
2022/02/26 07:48:13;;;;;;;3.53;3.03;;;8.40;85.20;;;;;;5016829;28;20290;-66
2022/02/26 07:50:41;;;;;;;2.33;2.13;;;8.40;84.90;;;;;;5004901;28;20218;-67
2022/02/26 07:53:08;;;;;;;4.07;2.23;;;8.50;84.90;;;;;;5023740;28;20206;-66
2022/02/26 07:55:37;;;;;;;5.33;2.80;;;8.50;84.70;;;;;;5022323;28;20583;-66
2022/02/26 07:58:05;;;;;;;3.70;2.47;;;8.60;84.60;;;;;;5017646;28;20568;-66
2022/02/26 08:00:32;;;;;;;2.47;2.27;;;8.70;84.40;;;;;;5028405;28;20203;-66
2022/02/26 08:03:00;;;;;;;3.30;2.30;;;8.80;84.10;;;;;;4993358;28;20681;-66
2022/02/26 08:05:28;;;;;;;5.73;2.83;;;8.90;84.20;;;;;;5025582;28;20207;-66
2022/02/26 08:07:56;;;;;;;2.40;2.20;;;9.00;84.20;;;;;;5025264;28;20207;-66
2022/02/26 08:10:24;;;;;;;6.10;2.73;;;9.10;84.10;;;;;;5018095;28;20652;-66
2022/02/26 08:12:54;;;;;;;5.70;4.10;;;9.30;83.70;;;;;;5022411;28;20215;-66
2022/02/26 08:15:22;;;;;;;6.10;3.80;;;9.40;83.40;;;;;;5024978;28;20222;-66
2022/02/26 08:17:50;;;;;;;4.70;2.47;;;9.50;83.30;;;;;;5016829;28;20206;-66
2022/02/26 08:20:19;;;;;;;3.93;2.53;;;9.60;83.20;;;;;;5019226;28;20218;-66
2022/02/26 08:22:46;;;;;;;4.37;2.43;;;9.70;83.60;;;;;;5017757;28;20213;-66
2022/02/26 08:25:13;;;;;;;397.43;202.63;;;9.90;82.80;;;;;;5026023;28;20258;-66
2022/02/26 08:27:41;;;;;;;21.03;10.10;;;10.00;81.10;;;;;;5023119;28;20199;-66
2022/02/26 08:30:11;;;;;;;10.70;6.80;;;10.10;80.50;;;;;;5021462;28;20201;-66
2022/02/26 08:32:38;;;;;;;5.30;2.80;;;10.20;80.00;;;;;;5020735;28;20283;-66
2022/02/26 08:35:08;;;;;;;2.87;2.00;;;10.30;78.50;;;;;;5021649;28;20210;-66
2022/02/26 08:37:36;;;;;;;3.63;2.30;;;10.40;77.40;;;;;;5020277;28;20211;-66
2022/02/26 08:40:06;;;;;;;5.40;2.70;;;10.50;74.10;;;;;;5023966;28;20265;-66
2022/02/26 08:42:33;;;;;;;3.00;2.37;;;10.40;73.10;;;;;;5016472;28;20617;-66
2022/02/26 08:45:06;;;;;;;4.70;2.50;;;10.30;73.60;;;;;;5016440;28;20725;-66
2022/02/26 08:47:34;;;;;;;2.87;2.53;;;10.10;73.50;;;;;;5002286;28;20215;-66
2022/02/26 08:50:06;;;;;;;2.10;1.90;;;10.10;75.60;;;;;;5020569;28;20200;-66
2022/02/26 08:52:33;;;;;;;5.83;2.53;;;10.20;74.30;;;;;;4999327;28;20502;-66
2022/02/26 08:55:00;;;;;;;5.00;2.40;;;10.20;73.60;;;;;;5017869;28;20207;-66
2022/02/26 08:57:27;;;;;;;4.80;2.30;;;10.30;75.10;;;;;;5026678;28;20199;-66
2022/02/26 08:59:54;;;;;;;4.40;2.90;;;10.40;75.10;;;;;;5023591;28;20208;-67
2022/02/26 09:02:21;;;;;;;3.13;2.27;;;10.50;73.40;;;;;;5012776;28;20645;-67
2022/02/26 09:04:49;;;;;;;3.63;2.37;;;10.60;74.40;;;;;;5020967;28;20266;-67
2022/02/26 09:07:16;;;;;;;5.10;2.87;;;10.70;72.80;;;;;;5019039;28;20215;-66
2022/02/26 09:09:43;;;;;;;7.13;2.33;;;10.80;74.50;;;;;;5022816;28;20212;-66
2022/02/26 09:12:10;;;;;;;2.60;2.17;;;11.00;74.30;;;;;;5023424;28;20211;-66
2022/02/26 09:14:37;;;;;;;4.07;2.57;;;11.20;72.80;;;;;;5017272;28;20211;-66
2022/02/26 09:17:04;;;;;;;5.83;2.63;;;11.20;69.60;;;;;;5016466;28;20319;-66
2022/02/26 09:19:31;;;;;;;4.10;2.23;;;11.20;70.60;;;;;;5020919;28;20211;-66
2022/02/26 09:22:03;;;;;;;2.33;2.10;;;11.20;70.90;;;;;;5023268;28;20211;-66
2022/02/26 09:24:33;;;;;;;5.50;2.50;;;11.30;69.60;;;;;;5019283;28;20658;-66
2022/02/26 09:27:01;;;;;;;4.40;2.47;;;11.30;69.80;;;;;;5023354;28;20212;-67
2022/02/26 09:29:28;;;;;;;4.23;2.30;;;11.30;70.80;;;;;;5022509;28;20210;-66
2022/02/26 09:31:56;;;;;;;3.37;2.17;;;11.40;71.00;;;;;;5025474;28;20218;-66
2022/02/26 09:34:23;;;;;;;3.60;2.60;;;11.50;67.90;;;;;;5027554;28;20214;-66
2022/02/26 09:36:52;;;;;;;5.17;2.73;;;11.50;68.90;;;;;;5016448;28;20236;-66
2022/02/26 09:39:19;;;;;;;5.00;3.20;;;11.60;69.50;;;;;;5017296;28;20660;-66
2022/02/26 09:41:47;;;;;;;4.63;2.63;;;11.60;69.40;;;;;;5021729;28;20211;-66
2022/02/26 09:44:19;;;;;;;3.13;2.73;;;11.70;68.70;;;;;;5019003;28;20615;-66
2022/02/26 09:46:47;;;;;;;5.97;2.60;;;11.70;69.20;;;;;;5018728;28;20208;-66
2022/02/26 09:49:14;;;;;;;2.87;2.67;;;11.80;69.70;;;;;;5015969;28;20209;-66
2022/02/26 09:51:43;;;;;;;6.40;2.53;;;11.90;69.40;;;;;;5022150;28;20259;-66
2022/02/26 09:54:11;;;;;;;2.67;2.47;;;12.00;69.00;;;;;;5023817;28;20199;-66
2022/02/26 09:56:39;;;;;;;4.53;2.60;;;12.20;68.30;;;;;;5020390;28;20225;-66
2022/02/26 09:59:06;;;;;;;3.80;2.43;;;12.30;68.10;;;;;;5016231;28;20330;-66
2022/02/26 10:01:33;;;;;;;3.83;2.47;;;12.40;66.10;;;;;;5022222;28;20209;-66
2022/02/26 10:04:11;;;;;;;5.77;2.43;;;12.40;65.10;;;;;;5019352;28;20202;-66
2022/02/26 10:06:38;;;;;;;2.50;2.30;;;12.40;65.60;;;;;;5026503;28;20608;-66
2022/02/26 10:09:11;;;;;;;3.43;2.17;;;12.40;66.10;;;;;;5018962;28;20204;-67
2022/02/26 10:11:40;;;;;;;1.90;1.70;;;12.50;65.90;;;;;;5015683;28;20216;-67
2022/02/26 10:14:08;;;;;;;3.50;1.93;;;12.70;64.40;;;;;;5020580;28;20300;-67
2022/02/26 10:17:01;;;;;;;4.77;1.67;;;12.70;61.80;;;;;;5021848;28;20226;-66
2022/02/26 10:19:32;;;;;;;4.10;2.80;;;12.90;62.60;;;;;;5017946;28;20218;-66
2022/02/26 10:22:08;;;;;;;3.37;2.50;;;13.00;60.50;;;;;;5017154;28;20229;-66
2022/02/26 10:24:39;;;;;;;3.93;2.40;;;12.90;60.60;;;;;;5019222;28;20203;-66
2022/02/26 10:27:10;;;;;;;4.27;2.10;;;13.00;62.40;;;;;;5023618;28;20211;-66
2022/02/26 10:29:39;;;;;;;3.03;2.37;;;12.90;57.70;;;;;;5021147;28;20219;-66
2022/02/26 10:32:08;;;;;;;2.53;1.83;;;13.00;59.00;;;;;;5022988;28;20229;-66
2022/02/26 10:34:38;;;;;;;4.37;2.20;;;13.00;56.40;;;;;;5016160;28;20211;-66
2022/02/26 10:37:11;;;;;;;1.97;1.23;;;12.90;58.00;;;;;;5020797;28;20226;-66
2022/02/26 10:39:43;;;;;;;2.03;1.40;;;12.90;57.20;;;;;;5013598;28;20201;-66
2022/02/26 10:42:23;;;;;;;4.90;1.90;;;12.90;53.00;;;;;;5015351;28;20210;-66
2022/02/26 10:45:00;;;;;;;3.90;2.23;;;12.90;54.60;;;;;;5015905;28;20201;-66
2022/02/26 10:47:30;;;;;;;2.50;2.10;;;12.90;57.40;;;;;;5019656;28;20683;-66
2022/02/26 10:49:57;;;;;;;3.47;2.07;;;13.00;57.40;;;;;;5023841;28;20213;-66
2022/02/26 10:52:33;;;;;;;5.37;1.83;;;13.10;54.90;;;;;;5001822;28;20218;-66
2022/02/26 10:55:06;;;;;;;2.83;1.83;;;13.10;53.50;;;;;;4998746;28;20205;-66
2022/02/26 10:57:33;;;;;;;4.03;1.80;;;13.10;55.30;;;;;;5019135;28;20730;-66
2022/02/26 11:00:01;;;;;;;3.03;1.90;;;13.20;53.30;;;;;;5026850;28;20268;-66
2022/02/26 11:02:29;;;;;;;2.97;1.70;;;13.20;53.30;;;;;;5024089;28;20198;-66
2022/02/26 11:04:57;;;;;;;3.70;1.77;;;13.20;53.50;;;;;;5013886;28;20210;-66
2022/02/26 11:07:26;;;;;;;3.37;2.13;;;13.20;51.70;;;;;;5016520;28;20281;-66
2022/02/26 11:09:53;;;;;;;4.13;1.80;;;13.20;52.00;;;;;;5019995;28;20329;-66
2022/02/26 11:12:24;;;;;;;1.97;1.80;;;13.30;51.90;;;;;;5027252;28;20210;-66
2022/02/26 11:14:59;;;;;;;1.97;1.67;;;13.30;51.10;;;;;;5022979;28;20208;-66
2022/02/26 11:17:29;;;;;;;3.03;2.00;;;13.30;51.40;;;;;;5019663;28;20282;-66
2022/02/26 11:20:00;;;;;;;3.47;1.50;;;13.40;51.30;;;;;;5021135;28;20203;-66
2022/02/26 11:22:27;;;;;;;2.80;1.93;;;13.40;49.20;;;;;;5027635;28;20201;-66
2022/02/26 11:24:55;;;;;;;2.63;1.97;;;13.50;49.70;;;;;;5023036;28;20231;-66
2022/02/26 11:27:23;;;;;;;1.97;1.80;;;13.60;51.20;;;;;;5018647;28;20206;-66
2022/02/26 11:29:51;;;;;;;3.07;1.83;;;13.80;51.60;;;;;;5026049;28;20200;-66
2022/02/26 11:32:21;;;;;;;1.10;1.00;;;14.00;49.40;;;;;;5024577;28;20215;-66
2022/02/26 11:34:48;;;;;;;2.27;1.20;;;14.00;44.20;;;;;;5019715;28;20212;-66
2022/02/26 11:37:17;;;;;;;3.27;1.53;;;14.00;44.80;;;;;;5023856;28;20228;-66
2022/02/26 11:39:50;;;;;;;1.20;1.10;;;13.90;44.70;;;;;;5018389;28;20203;-67
2022/02/26 11:42:23;;;;;;;2.10;1.40;;;13.90;46.00;;;;;;5023786;28;20217;-66
2022/02/26 11:44:54;;;;;;;2.37;1.20;;;13.80;45.90;;;;;;5024059;28;20264;-66
2022/02/26 11:47:24;;;;;;;1.97;1.33;;;13.80;43.80;;;;;;5021361;28;20259;-66
2022/02/26 11:50:14;;;;;;;3.97;1.77;;;13.60;43.20;;;;;;5017055;28;20646;-66
2022/02/26 11:52:49;;;;;;;1.47;1.37;;;13.50;45.10;;;;;;5022066;28;20218;-66
2022/02/26 11:55:22;;;;;;;1.73;1.40;;;13.50;44.90;;;;;;5026998;28;20638;-66
2022/02/26 11:57:50;;;;;;;2.93;1.30;;;13.50;45.00;;;;;;5020801;28;20248;-66
2022/02/26 12:00:22;;;;;;;2.20;1.83;;;13.50;47.10;;;;;;5025200;28;20210;-66
2022/02/26 12:03:20;;;;;;;4.27;1.50;;;13.50;45.70;;;;;;5016941;28;20195;-66
2022/02/26 12:05:51;;;;;;;1.77;1.20;;;13.60;45.30;;;;;;5007422;28;20549;-66
2022/02/26 12:08:23;;;;;;;1.50;1.40;;;13.70;46.20;;;;;;5029368;28;20296;-66
2022/02/26 12:10:56;;;;;;;1.63;1.37;;;13.70;47.20;;;;;;5016783;28;20215;-66
2022/02/26 12:13:28;;;;;;;1.87;1.77;;;13.80;46.50;;;;;;5017912;28;20215;-66
2022/02/26 12:16:17;;;;;;;1.77;1.60;;;13.80;44.20;;;;;;5024537;28;20520;-66
2022/02/26 12:19:06;;;;;;;1.80;1.43;;;13.80;43.90;;;;;;5023638;28;20249;-66
2022/02/26 12:21:42;;;;;;;2.20;1.80;;;13.80;44.90;;;;;;5017960;28;20299;-66
2022/02/26 12:24:16;;;;;;;1.70;1.60;;;13.90;46.40;;;;;;5017621;28;20201;-67
2022/02/26 12:26:48;;;;;;;4.13;1.87;;;13.90;45.90;;;;;;5020267;28;20565;-66
2022/02/26 12:29:40;;;;;;;2.67;1.53;;;14.00;44.90;;;;;;5025395;28;20529;-66
2022/02/26 12:32:12;;;;;;;2.27;1.70;;;14.00;44.40;;;;;;5025945;28;20214;-67
2022/02/26 12:35:09;;;;;;;1.40;1.20;;;14.00;43.60;;;;;;5019289;28;20205;-66
2022/02/26 12:37:45;;;;;;;2.83;1.43;;;14.00;44.60;;;;;;5021010;28;20230;-66
2022/02/26 12:40:34;;;;;;;1.77;1.07;;;14.00;40.90;;;;;;5024213;28;20223;-66
2022/02/26 12:43:28;;;;;;;2.47;1.50;;;13.90;42.20;;;;;;5016349;28;20515;-66
2022/02/26 12:45:57;;;;;;;1.47;1.37;;;13.80;43.90;;;;;;5015997;28;20207;-66
2022/02/26 12:48:24;;;;;;;1.20;1.10;;;13.80;43.30;;;;;;5022184;28;20268;-66
2022/02/26 12:50:52;;;;;;;1.20;1.10;;;13.80;43.30;;;;;;5006412;28;20210;-66
2022/02/26 12:53:22;;;;;;;1.80;1.30;;;13.90;41.40;;;;;;5016745;28;20215;-66
2022/02/26 12:55:49;;;;;;;3.53;1.20;;;13.90;41.60;;;;;;5018820;28;20660;-66
2022/02/26 12:58:16;;;;;;;1.63;0.87;;;13.90;41.20;;;;;;5023196;28;20660;-66
2022/02/26 13:00:48;;;;;;;2.37;1.00;;;14.00;43.10;;;;;;5026644;28;20211;-66
2022/02/26 13:03:21;;;;;;;0.93;0.73;;;14.00;42.80;;;;;;5024744;28;20201;-66
2022/02/26 13:05:49;;;;;;;2.60;1.03;;;14.00;42.70;;;;;;5024446;28;20238;-66